Portada
METAR-TAF:

METAR-TAF

Aeropuertos :

Aeropuerto de Dresde

Dresde, Alemania

latitud: 51-08N, longitud: 013-45E, altitud: 230 m

Observación

El informe se hizo hace 28 minutos, a las 05:50 UTC
Viento 3 kt del sur-sureste
Temperatura 13°C
Humedad 77%
Presión 1007 hPa
Visibilidad 10 km o más
sin nubes por debajo de 1500 m y sin presencia de cumulonimbus.

METAR: EDDC 070550Z 15003KT CAVOK 13/09 Q1007 NOSIG

Hora: 08:18 (06:18 UTC)

Pronóstico

El informe se hizo hace 1 hora y 18 minutos, a las 05:00 UTC
Pronóstico válido del 07 a las 06 UTC al 08 a las 06 UTC
Viento 4 kt del sur
Visibilidad 10 km o más
sin nubes por debajo de 1500 m y sin presencia de cumulonimbus.
Evolucionando progresivamente
del 07 a las 07 UTC al 07 a las 10 UTC
Viento 5 kt del oeste-suroeste
Evolucionando progresivamente
del 07 a las 19 UTC al 07 a las 21 UTC
Viento 4 kt del oeste-noroeste

TAF: EDDC 070500Z 0706/0806 18004KT CAVOK BECMG 0707/0710 24005KT BECMG 0719/0721 30004KT

Observaciones y pronósticos meteorológicos de más de 4000 aeropuertos (mensajes METAR y TAF).

Los puntos amarillos y rojos representan las estaciones disponibles.

Ponga el ratón en el punto deseado para ver el nombre de la estación.

Haga clic para ver las observaciones y los pronósticos meteorológicos.

Para cambiar el mapa : haga clic en los botones verdes con una cruz de color negro para hacer un zoom, en el botón verde con un guión para alejar o en las flechas verdes para mapas adyacentes.


METAR-TAF: